sensor_id;sensor_type;location;lat;lon;timestamp;P1;durP1;ratioP1;P2;durP2;ratioP2
7191;SDS011;3637;51.494;11.958;2023-03-14T00:01:08;1.90;;;1.80;;
7191;SDS011;3637;51.494;11.958;2023-03-14T00:04:13;1.33;;;1.17;;
7191;SDS011;3637;51.494;11.958;2023-03-14T00:07:15;1.30;;;1.20;;
7191;SDS011;3637;51.494;11.958;2023-03-14T00:10:17;1.30;;;1.20;;
7191;SDS011;3637;51.494;11.958;2023-03-14T00:13:19;1.30;;;1.20;;
7191;SDS011;3637;51.494;11.958;2023-03-14T00:16:24;0.97;;;0.97;;
7191;SDS011;3637;51.494;11.958;2023-03-14T00:19:28;1.57;;;1.20;;
7191;SDS011;3637;51.494;11.958;2023-03-14T00:22:30;1.10;;;1.10;;
7191;SDS011;3637;51.494;11.958;2023-03-14T00:25:35;1.23;;;1.13;;
7191;SDS011;3637;51.494;11.958;2023-03-14T00:28:38;2.20;;;1.30;;
7191;SDS011;3637;51.494;11.958;2023-03-14T00:31:40;1.00;;;1.00;;
7191;SDS011;3637;51.494;11.958;2023-03-14T00:34:46;1.27;;;1.17;;
7191;SDS011;3637;51.494;11.958;2023-03-14T00:37:48;1.27;;;1.17;;
7191;SDS011;3637;51.494;11.958;2023-03-14T00:40:50;1.40;;;1.10;;
7191;SDS011;3637;51.494;11.958;2023-03-14T00:43:52;1.13;;;1.13;;
7191;SDS011;3637;51.494;11.958;2023-03-14T00:46:53;1.20;;;1.10;;
7191;SDS011;3637;51.494;11.958;2023-03-14T00:49:57;1.23;;;1.20;;
7191;SDS011;3637;51.494;11.958;2023-03-14T00:52:58;1.20;;;1.10;;
7191;SDS011;3637;51.494;11.958;2023-03-14T00:56:02;1.20;;;1.10;;
7191;SDS011;3637;51.494;11.958;2023-03-14T00:59:04;1.30;;;1.20;;
7191;SDS011;3637;51.494;11.958;2023-03-14T01:02:06;1.00;;;1.00;;
7191;SDS011;3637;51.494;11.958;2023-03-14T01:05:10;1.10;;;1.10;;
7191;SDS011;3637;51.494;11.958;2023-03-14T01:08:14;1.10;;;1.10;;
7191;SDS011;3637;51.494;11.958;2023-03-14T01:11:17;1.00;;;1.00;;
7191;SDS011;3637;51.494;11.958;2023-03-14T01:14:20;1.53;;;1.43;;
7191;SDS011;3637;51.494;11.958;2023-03-14T01:17:22;1.20;;;1.20;;
7191;SDS011;3637;51.494;11.958;2023-03-14T01:20:25;1.10;;;1.10;;
7191;SDS011;3637;51.494;11.958;2023-03-14T01:23:28;0.83;;;0.83;;
7191;SDS011;3637;51.494;11.958;2023-03-14T01:26:30;1.30;;;1.20;;
7191;SDS011;3637;51.494;11.958;2023-03-14T01:29:34;1.27;;;1.17;;
7191;SDS011;3637;51.494;11.958;2023-03-14T01:32:35;1.43;;;1.33;;
7191;SDS011;3637;51.494;11.958;2023-03-14T01:35:39;1.03;;;1.00;;
7191;SDS011;3637;51.494;11.958;2023-03-14T01:38:41;1.43;;;1.10;;
7191;SDS011;3637;51.494;11.958;2023-03-14T01:41:43;0.80;;;0.80;;
7191;SDS011;3637;51.494;11.958;2023-03-14T01:44:49;1.00;;;1.00;;
7191;SDS011;3637;51.494;11.958;2023-03-14T01:47:52;1.00;;;1.00;;
7191;SDS011;3637;51.494;11.958;2023-03-14T01:50:55;1.30;;;1.20;;
7191;SDS011;3637;51.494;11.958;2023-03-14T01:53:59;1.20;;;1.10;;
7191;SDS011;3637;51.494;11.958;2023-03-14T01:57:07;1.00;;;1.00;;
7191;SDS011;3637;51.494;11.958;2023-03-14T02:00:13;0.90;;;0.90;;
7191;SDS011;3637;51.494;11.958;2023-03-14T02:03:18;0.90;;;0.90;;
7191;SDS011;3637;51.494;11.958;2023-03-14T02:06:25;1.80;;;1.10;;
7191;SDS011;3637;51.494;11.958;2023-03-14T02:09:33;1.23;;;1.20;;
7191;SDS011;3637;51.494;11.958;2023-03-14T02:12:35;1.03;;;1.00;;
7191;SDS011;3637;51.494;11.958;2023-03-14T02:15:38;1.70;;;1.20;;
7191;SDS011;3637;51.494;11.958;2023-03-14T02:18:41;1.23;;;1.13;;
7191;SDS011;3637;51.494;11.958;2023-03-14T02:21:47;1.30;;;1.20;;
7191;SDS011;3637;51.494;11.958;2023-03-14T02:24:56;1.30;;;1.20;;
7191;SDS011;3637;51.494;11.958;2023-03-14T02:28:04;1.10;;;1.03;;
7191;SDS011;3637;51.494;11.958;2023-03-14T02:31:06;1.30;;;1.20;;
7191;SDS011;3637;51.494;11.958;2023-03-14T02:34:09;1.10;;;1.00;;
7191;SDS011;3637;51.494;11.958;2023-03-14T02:37:12;1.20;;;1.10;;
7191;SDS011;3637;51.494;11.958;2023-03-14T02:40:16;1.50;;;1.00;;
7191;SDS011;3637;51.494;11.958;2023-03-14T02:43:19;1.00;;;1.00;;
7191;SDS011;3637;51.494;11.958;2023-03-14T02:46:21;3.60;;;1.37;;
7191;SDS011;3637;51.494;11.958;2023-03-14T02:49:23;1.40;;;1.30;;
7191;SDS011;3637;51.494;11.958;2023-03-14T02:52:28;1.10;;;1.10;;
7191;SDS011;3637;51.494;11.958;2023-03-14T02:55:30;1.07;;;1.07;;
7191;SDS011;3637;51.494;11.958;2023-03-14T02:58:33;0.90;;;0.90;;
7191;SDS011;3637;51.494;11.958;2023-03-14T03:01:35;1.20;;;1.10;;
7191;SDS011;3637;51.494;11.958;2023-03-14T03:04:37;1.10;;;1.10;;
7191;SDS011;3637;51.494;11.958;2023-03-14T03:07:39;2.53;;;1.07;;
7191;SDS011;3637;51.494;11.958;2023-03-14T03:10:41;1.00;;;1.00;;
7191;SDS011;3637;51.494;11.958;2023-03-14T03:13:44;1.00;;;1.00;;
7191;SDS011;3637;51.494;11.958;2023-03-14T03:16:46;1.10;;;1.00;;
7191;SDS011;3637;51.494;11.958;2023-03-14T03:19:47;1.30;;;1.20;;
7191;SDS011;3637;51.494;11.958;2023-03-14T03:22:49;1.13;;;1.13;;
7191;SDS011;3637;51.494;11.958;2023-03-14T03:25:51;1.23;;;1.20;;
7191;SDS011;3637;51.494;11.958;2023-03-14T03:28:54;1.03;;;1.03;;
7191;SDS011;3637;51.494;11.958;2023-03-14T03:31:56;1.10;;;1.10;;
7191;SDS011;3637;51.494;11.958;2023-03-14T03:34:58;1.00;;;1.00;;
7191;SDS011;3637;51.494;11.958;2023-03-14T03:38:00;1.17;;;1.10;;
7191;SDS011;3637;51.494;11.958;2023-03-14T03:41:03;1.83;;;1.20;;
7191;SDS011;3637;51.494;11.958;2023-03-14T03:44:07;1.13;;;1.07;;
7191;SDS011;3637;51.494;11.958;2023-03-14T03:47:08;1.10;;;1.00;;
7191;SDS011;3637;51.494;11.958;2023-03-14T03:50:10;1.47;;;1.17;;
7191;SDS011;3637;51.494;11.958;2023-03-14T03:53:12;1.47;;;1.20;;
7191;SDS011;3637;51.494;11.958;2023-03-14T03:56:14;1.10;;;1.10;;
7191;SDS011;3637;51.494;11.958;2023-03-14T03:59:17;1.80;;;1.17;;
7191;SDS011;3637;51.494;11.958;2023-03-14T04:02:19;1.13;;;1.03;;
7191;SDS011;3637;51.494;11.958;2023-03-14T04:05:24;1.10;;;1.10;;
7191;SDS011;3637;51.494;11.958;2023-03-14T04:08:26;1.30;;;1.00;;
7191;SDS011;3637;51.494;11.958;2023-03-14T04:11:28;1.70;;;1.30;;
7191;SDS011;3637;51.494;11.958;2023-03-14T04:14:32;1.33;;;1.20;;
7191;SDS011;3637;51.494;11.958;2023-03-14T04:17:34;1.30;;;1.20;;
7191;SDS011;3637;51.494;11.958;2023-03-14T04:20:35;1.60;;;1.13;;
7191;SDS011;3637;51.494;11.958;2023-03-14T04:23:37;2.90;;;2.03;;
7191;SDS011;3637;51.494;11.958;2023-03-14T04:26:39;1.50;;;1.40;;
7191;SDS011;3637;51.494;11.958;2023-03-14T04:29:43;1.50;;;1.40;;
7191;SDS011;3637;51.494;11.958;2023-03-14T04:32:44;1.20;;;1.10;;
7191;SDS011;3637;51.494;11.958;2023-03-14T04:35:47;1.40;;;1.30;;
7191;SDS011;3637;51.494;11.958;2023-03-14T04:38:50;2.97;;;1.50;;
7191;SDS011;3637;51.494;11.958;2023-03-14T04:41:51;1.53;;;1.30;;
7191;SDS011;3637;51.494;11.958;2023-03-14T04:44:55;1.33;;;1.23;;
7191;SDS011;3637;51.494;11.958;2023-03-14T04:47:57;1.83;;;1.23;;
7191;SDS011;3637;51.494;11.958;2023-03-14T04:50:59;2.87;;;1.40;;
7191;SDS011;3637;51.494;11.958;2023-03-14T04:54:00;2.10;;;1.30;;
7191;SDS011;3637;51.494;11.958;2023-03-14T04:57:02;1.60;;;1.30;;
7191;SDS011;3637;51.494;11.958;2023-03-14T05:00:06;1.90;;;1.30;;
7191;SDS011;3637;51.494;11.958;2023-03-14T05:03:09;2.33;;;1.60;;
7191;SDS011;3637;51.494;11.958;2023-03-14T05:06:13;4.90;;;1.50;;
7191;SDS011;3637;51.494;11.958;2023-03-14T05:09:14;2.60;;;1.67;;
7191;SDS011;3637;51.494;11.958;2023-03-14T05:12:16;1.40;;;1.30;;
7191;SDS011;3637;51.494;11.958;2023-03-14T05:15:19;2.47;;;1.10;;
7191;SDS011;3637;51.494;11.958;2023-03-14T05:18:22;1.20;;;1.10;;
7191;SDS011;3637;51.494;11.958;2023-03-14T05:21:24;2.10;;;1.50;;
7191;SDS011;3637;51.494;11.958;2023-03-14T05:24:26;3.00;;;1.57;;
7191;SDS011;3637;51.494;11.958;2023-03-14T05:27:28;2.23;;;1.40;;
7191;SDS011;3637;51.494;11.958;2023-03-14T05:30:31;2.43;;;1.47;;
7191;SDS011;3637;51.494;11.958;2023-03-14T05:33:33;3.13;;;1.63;;
7191;SDS011;3637;51.494;11.958;2023-03-14T05:36:35;1.63;;;1.30;;
7191;SDS011;3637;51.494;11.958;2023-03-14T05:39:37;4.07;;;2.27;;
7191;SDS011;3637;51.494;11.958;2023-03-14T05:42:39;3.80;;;1.70;;
7191;SDS011;3637;51.494;11.958;2023-03-14T05:45:42;9.73;;;1.70;;
7191;SDS011;3637;51.494;11.958;2023-03-14T05:48:44;2.20;;;1.37;;
7191;SDS011;3637;51.494;11.958;2023-03-14T05:51:46;1.97;;;1.20;;
7191;SDS011;3637;51.494;11.958;2023-03-14T05:54:48;1.90;;;1.60;;
7191;SDS011;3637;51.494;11.958;2023-03-14T05:57:50;2.57;;;1.50;;
7191;SDS011;3637;51.494;11.958;2023-03-14T06:00:53;2.60;;;1.57;;
7191;SDS011;3637;51.494;11.958;2023-03-14T06:03:55;1.53;;;1.40;;
7191;SDS011;3637;51.494;11.958;2023-03-14T06:06:56;2.13;;;1.47;;
7191;SDS011;3637;51.494;11.958;2023-03-14T06:09:58;3.17;;;1.47;;
7191;SDS011;3637;51.494;11.958;2023-03-14T06:13:00;3.13;;;1.30;;
7191;SDS011;3637;51.494;11.958;2023-03-14T06:16:04;1.60;;;1.50;;
7191;SDS011;3637;51.494;11.958;2023-03-14T06:19:06;1.57;;;1.20;;
7191;SDS011;3637;51.494;11.958;2023-03-14T06:22:08;1.33;;;1.17;;
7191;SDS011;3637;51.494;11.958;2023-03-14T06:25:09;2.73;;;1.30;;
7191;SDS011;3637;51.494;11.958;2023-03-14T06:28:11;2.33;;;1.50;;
7191;SDS011;3637;51.494;11.958;2023-03-14T06:31:14;3.73;;;1.43;;
7191;SDS011;3637;51.494;11.958;2023-03-14T06:34:16;1.33;;;1.10;;
7191;SDS011;3637;51.494;11.958;2023-03-14T06:37:18;1.30;;;1.20;;
7191;SDS011;3637;51.494;11.958;2023-03-14T06:40:20;2.27;;;1.20;;
7191;SDS011;3637;51.494;11.958;2023-03-14T06:43:21;2.67;;;1.23;;
7191;SDS011;3637;51.494;11.958;2023-03-14T06:46:25;3.80;;;1.20;;
7191;SDS011;3637;51.494;11.958;2023-03-14T06:49:26;1.30;;;1.13;;
7191;SDS011;3637;51.494;11.958;2023-03-14T06:52:28;4.13;;;1.30;;
7191;SDS011;3637;51.494;11.958;2023-03-14T06:55:30;1.67;;;1.33;;
7191;SDS011;3637;51.494;11.958;2023-03-14T06:58:32;1.40;;;1.23;;
7191;SDS011;3637;51.494;11.958;2023-03-14T07:01:35;2.47;;;1.40;;
7191;SDS011;3637;51.494;11.958;2023-03-14T07:04:38;2.10;;;1.23;;
7191;SDS011;3637;51.494;11.958;2023-03-14T07:07:40;1.57;;;1.43;;
7191;SDS011;3637;51.494;11.958;2023-03-14T07:10:41;1.43;;;1.33;;
7191;SDS011;3637;51.494;11.958;2023-03-14T07:13:43;8.73;;;1.93;;
7191;SDS011;3637;51.494;11.958;2023-03-14T07:16:46;1.30;;;1.20;;
7191;SDS011;3637;51.494;11.958;2023-03-14T07:19:48;1.90;;;1.40;;
7191;SDS011;3637;51.494;11.958;2023-03-14T07:22:52;4.13;;;1.63;;
7191;SDS011;3637;51.494;11.958;2023-03-14T07:25:54;1.17;;;1.00;;
7191;SDS011;3637;51.494;11.958;2023-03-14T07:28:56;1.20;;;1.10;;
7191;SDS011;3637;51.494;11.958;2023-03-14T07:31:59;1.37;;;1.27;;
7191;SDS011;3637;51.494;11.958;2023-03-14T07:35:01;2.83;;;1.43;;
7191;SDS011;3637;51.494;11.958;2023-03-14T07:38:03;3.03;;;1.50;;
7191;SDS011;3637;51.494;11.958;2023-03-14T07:41:05;2.00;;;1.43;;
7191;SDS011;3637;51.494;11.958;2023-03-14T07:44:08;2.13;;;1.40;;
7191;SDS011;3637;51.494;11.958;2023-03-14T07:47:11;2.43;;;1.30;;
7191;SDS011;3637;51.494;11.958;2023-03-14T07:50:13;3.33;;;1.10;;
7191;SDS011;3637;51.494;11.958;2023-03-14T07:53:14;4.73;;;1.37;;
7191;SDS011;3637;51.494;11.958;2023-03-14T07:56:16;1.33;;;1.20;;
7191;SDS011;3637;51.494;11.958;2023-03-14T07:59:18;1.33;;;1.13;;
7191;SDS011;3637;51.494;11.958;2023-03-14T08:02:22;1.87;;;1.20;;
7191;SDS011;3637;51.494;11.958;2023-03-14T08:05:24;3.27;;;1.40;;
7191;SDS011;3637;51.494;11.958;2023-03-14T08:08:26;2.47;;;1.57;;
7191;SDS011;3637;51.494;11.958;2023-03-14T08:11:27;2.83;;;1.40;;
7191;SDS011;3637;51.494;11.958;2023-03-14T08:14:29;1.87;;;1.40;;
7191;SDS011;3637;51.494;11.958;2023-03-14T08:17:33;3.50;;;1.13;;
7191;SDS011;3637;51.494;11.958;2023-03-14T08:20:35;2.00;;;1.30;;
7191;SDS011;3637;51.494;11.958;2023-03-14T08:23:37;1.53;;;1.20;;
7191;SDS011;3637;51.494;11.958;2023-03-14T08:26:39;1.57;;;1.30;;
7191;SDS011;3637;51.494;11.958;2023-03-14T08:29:41;1.87;;;1.23;;
7191;SDS011;3637;51.494;11.958;2023-03-14T08:32:45;1.77;;;1.20;;
7191;SDS011;3637;51.494;11.958;2023-03-14T08:35:47;2.03;;;1.73;;
7191;SDS011;3637;51.494;11.958;2023-03-14T08:38:49;1.53;;;1.20;;
7191;SDS011;3637;51.494;11.958;2023-03-14T08:41:50;2.57;;;1.17;;
7191;SDS011;3637;51.494;11.958;2023-03-14T08:44:52;1.23;;;1.00;;
7191;SDS011;3637;51.494;11.958;2023-03-14T08:47:55;0.90;;;0.90;;
7191;SDS011;3637;51.494;11.958;2023-03-14T08:51:03;0.93;;;0.93;;
7191;SDS011;3637;51.494;11.958;2023-03-14T08:54:09;1.10;;;1.00;;
7191;SDS011;3637;51.494;11.958;2023-03-14T08:57:11;2.87;;;1.20;;
7191;SDS011;3637;51.494;11.958;2023-03-14T09:00:13;2.13;;;1.27;;
7191;SDS011;3637;51.494;11.958;2023-03-14T09:03:18;1.00;;;1.00;;
7191;SDS011;3637;51.494;11.958;2023-03-14T09:06:20;1.10;;;1.00;;
7191;SDS011;3637;51.494;11.958;2023-03-14T09:09:22;1.00;;;0.97;;
7191;SDS011;3637;51.494;11.958;2023-03-14T09:12:23;1.20;;;1.10;;
7191;SDS011;3637;51.494;11.958;2023-03-14T09:15:25;0.90;;;0.90;;
7191;SDS011;3637;51.494;11.958;2023-03-14T09:18:29;1.30;;;1.20;;
7191;SDS011;3637;51.494;11.958;2023-03-14T09:21:31;2.03;;;1.07;;
7191;SDS011;3637;51.494;11.958;2023-03-14T09:24:32;1.47;;;1.00;;
7191;SDS011;3637;51.494;11.958;2023-03-14T09:27:34;1.47;;;1.10;;
7191;SDS011;3637;51.494;11.958;2023-03-14T09:30:36;0.80;;;0.80;;
7191;SDS011;3637;51.494;11.958;2023-03-14T09:33:39;4.43;;;1.30;;
7191;SDS011;3637;51.494;11.958;2023-03-14T09:36:41;2.00;;;0.90;;
7191;SDS011;3637;51.494;11.958;2023-03-14T09:39:44;1.00;;;0.90;;
7191;SDS011;3637;51.494;11.958;2023-03-14T09:42:46;0.80;;;0.80;;
7191;SDS011;3637;51.494;11.958;2023-03-14T09:45:51;1.53;;;1.00;;
7191;SDS011;3637;51.494;11.958;2023-03-14T09:48:54;0.87;;;0.87;;
7191;SDS011;3637;51.494;11.958;2023-03-14T09:51:57;0.80;;;0.80;;
7191;SDS011;3637;51.494;11.958;2023-03-14T09:55:01;2.53;;;1.03;;
7191;SDS011;3637;51.494;11.958;2023-03-14T09:58:08;2.63;;;1.10;;
7191;SDS011;3637;51.494;11.958;2023-03-14T10:01:13;0.90;;;0.90;;
7191;SDS011;3637;51.494;11.958;2023-03-14T10:04:21;0.93;;;0.90;;
7191;SDS011;3637;51.494;11.958;2023-03-14T10:07:25;1.00;;;1.00;;
7191;SDS011;3637;51.494;11.958;2023-03-14T10:10:30;3.93;;;1.10;;
7191;SDS011;3637;51.494;11.958;2023-03-14T10:13:32;1.13;;;0.87;;
7191;SDS011;3637;51.494;11.958;2023-03-14T10:16:34;1.00;;;0.90;;
7191;SDS011;3637;51.494;11.958;2023-03-14T10:19:41;0.80;;;0.80;;
7191;SDS011;3637;51.494;11.958;2023-03-14T10:22:55;1.20;;;1.07;;
7191;SDS011;3637;51.494;11.958;2023-03-14T10:26:04;1.27;;;1.00;;
7191;SDS011;3637;51.494;11.958;2023-03-14T10:29:09;1.53;;;1.00;;
7191;SDS011;3637;51.494;11.958;2023-03-14T10:32:18;1.00;;;0.90;;
7191;SDS011;3637;51.494;11.958;2023-03-14T10:35:33;1.63;;;0.90;;
7191;SDS011;3637;51.494;11.958;2023-03-14T10:38:37;1.43;;;1.00;;
7191;SDS011;3637;51.494;11.958;2023-03-14T10:41:39;1.80;;;1.23;;
7191;SDS011;3637;51.494;11.958;2023-03-14T10:44:41;0.77;;;0.77;;
7191;SDS011;3637;51.494;11.958;2023-03-14T10:47:48;9.03;;;1.67;;
7191;SDS011;3637;51.494;11.958;2023-03-14T10:50:56;1.03;;;1.03;;
7191;SDS011;3637;51.494;11.958;2023-03-14T10:54:00;0.90;;;0.90;;
7191;SDS011;3637;51.494;11.958;2023-03-14T10:57:03;1.00;;;1.00;;
7191;SDS011;3637;51.494;11.958;2023-03-14T11:00:09;0.87;;;0.83;;
7191;SDS011;3637;51.494;11.958;2023-03-14T11:03:16;0.70;;;0.70;;
7191;SDS011;3637;51.494;11.958;2023-03-14T11:06:23;0.77;;;0.77;;
7191;SDS011;3637;51.494;11.958;2023-03-14T11:09:31;0.80;;;0.80;;
7191;SDS011;3637;51.494;11.958;2023-03-14T11:12:38;0.80;;;0.80;;
7191;SDS011;3637;51.494;11.958;2023-03-14T11:15:50;0.73;;;0.73;;
7191;SDS011;3637;51.494;11.958;2023-03-14T11:19:14;1.10;;;1.03;;
7191;SDS011;3637;51.494;11.958;2023-03-14T11:22:33;0.80;;;0.80;;
7191;SDS011;3637;51.494;11.958;2023-03-14T11:25:43;0.80;;;0.80;;
7191;SDS011;3637;51.494;11.958;2023-03-14T11:28:50;1.37;;;0.97;;
7191;SDS011;3637;51.494;11.958;2023-03-14T11:31:58;1.03;;;0.93;;
7191;SDS011;3637;51.494;11.958;2023-03-14T11:35:03;1.23;;;0.93;;
7191;SDS011;3637;51.494;11.958;2023-03-14T11:38:18;0.80;;;0.80;;
7191;SDS011;3637;51.494;11.958;2023-03-14T11:41:30;0.60;;;0.60;;
7191;SDS011;3637;51.494;11.958;2023-03-14T11:44:34;1.80;;;1.33;;
7191;SDS011;3637;51.494;11.958;2023-03-14T11:47:38;0.70;;;0.70;;
7191;SDS011;3637;51.494;11.958;2023-03-14T11:50:43;1.10;;;1.10;;
7191;SDS011;3637;51.494;11.958;2023-03-14T11:53:54;1.53;;;0.90;;
7191;SDS011;3637;51.494;11.958;2023-03-14T11:57:03;0.80;;;0.80;;
7191;SDS011;3637;51.494;11.958;2023-03-14T12:00:12;0.60;;;0.60;;
7191;SDS011;3637;51.494;11.958;2023-03-14T12:03:19;0.93;;;0.77;;
7191;SDS011;3637;51.494;11.958;2023-03-14T12:06:28;2.43;;;1.17;;
7191;SDS011;3637;51.494;11.958;2023-03-14T12:09:35;1.53;;;0.73;;
7191;SDS011;3637;51.494;11.958;2023-03-14T12:12:37;2.10;;;0.90;;
7191;SDS011;3637;51.494;11.958;2023-03-14T12:15:40;0.63;;;0.63;;
7191;SDS011;3637;51.494;11.958;2023-03-14T12:18:47;1.07;;;0.97;;
7191;SDS011;3637;51.494;11.958;2023-03-14T12:21:51;1.43;;;0.90;;
7191;SDS011;3637;51.494;11.958;2023-03-14T12:25:04;0.87;;;0.87;;
7191;SDS011;3637;51.494;11.958;2023-03-14T12:28:18;0.90;;;0.90;;
7191;SDS011;3637;51.494;11.958;2023-03-14T12:31:38;0.90;;;0.90;;
7191;SDS011;3637;51.494;11.958;2023-03-14T12:34:43;1.27;;;0.90;;
7191;SDS011;3637;51.494;11.958;2023-03-14T12:37:48;1.97;;;0.80;;
7191;SDS011;3637;51.494;11.958;2023-03-14T12:40:56;1.13;;;0.80;;
7191;SDS011;3637;51.494;11.958;2023-03-14T12:47:51;1.23;;;1.13;;
7191;SDS011;3637;51.494;11.958;2023-03-14T12:51:03;0.90;;;0.90;;
7191;SDS011;3637;51.494;11.958;2023-03-14T12:54:25;0.80;;;0.80;;
7191;SDS011;3637;51.494;11.958;2023-03-14T12:57:35;0.80;;;0.80;;
7191;SDS011;3637;51.494;11.958;2023-03-14T13:00:41;1.13;;;1.00;;
7191;SDS011;3637;51.494;11.958;2023-03-14T13:03:43;0.80;;;0.80;;
7191;SDS011;3637;51.494;11.958;2023-03-14T13:06:48;1.00;;;0.90;;
7191;SDS011;3637;51.494;11.958;2023-03-14T13:09:54;0.90;;;0.90;;
7191;SDS011;3637;51.494;11.958;2023-03-14T13:13:20;0.70;;;0.70;;
7191;SDS011;3637;51.494;11.958;2023-03-14T13:16:23;1.80;;;0.80;;
7191;SDS011;3637;51.494;11.958;2023-03-14T13:19:26;1.00;;;1.00;;
7191;SDS011;3637;51.494;11.958;2023-03-14T13:22:31;1.00;;;0.90;;
7191;SDS011;3637;51.494;11.958;2023-03-14T13:25:37;1.30;;;1.20;;
7191;SDS011;3637;51.494;11.958;2023-03-14T13:28:40;0.90;;;0.90;;
7191;SDS011;3637;51.494;11.958;2023-03-14T13:31:43;1.20;;;1.10;;
7191;SDS011;3637;51.494;11.958;2023-03-14T13:34:46;1.27;;;0.90;;
7191;SDS011;3637;51.494;11.958;2023-03-14T13:37:51;2.90;;;1.10;;
7191;SDS011;3637;51.494;11.958;2023-03-14T13:40:56;0.90;;;0.90;;
7191;SDS011;3637;51.494;11.958;2023-03-14T13:44:02;0.60;;;0.60;;
7191;SDS011;3637;51.494;11.958;2023-03-14T13:47:10;1.00;;;0.90;;
7191;SDS011;3637;51.494;11.958;2023-03-14T13:50:15;0.70;;;0.70;;
7191;SDS011;3637;51.494;11.958;2023-03-14T13:53:18;1.70;;;1.10;;
7191;SDS011;3637;51.494;11.958;2023-03-14T13:56:21;2.50;;;1.03;;
7191;SDS011;3637;51.494;11.958;2023-03-14T13:59:26;0.87;;;0.87;;
7191;SDS011;3637;51.494;11.958;2023-03-14T14:02:29;0.80;;;0.80;;
7191;SDS011;3637;51.494;11.958;2023-03-14T14:05:32;0.90;;;0.90;;
7191;SDS011;3637;51.494;11.958;2023-03-14T14:08:40;0.90;;;0.90;;
7191;SDS011;3637;51.494;11.958;2023-03-14T14:11:44;1.23;;;0.90;;
7191;SDS011;3637;51.494;11.958;2023-03-14T14:14:51;4.20;;;1.50;;
7191;SDS011;3637;51.494;11.958;2023-03-14T14:17:57;1.03;;;1.00;;
7191;SDS011;3637;51.494;11.958;2023-03-14T14:21:02;1.40;;;1.30;;
7191;SDS011;3637;51.494;11.958;2023-03-14T14:24:05;1.30;;;1.20;;
7191;SDS011;3637;51.494;11.958;2023-03-14T14:27:08;1.40;;;0.97;;
7191;SDS011;3637;51.494;11.958;2023-03-14T14:30:32;1.10;;;1.00;;
7191;SDS011;3637;51.494;11.958;2023-03-14T14:33:38;3.03;;;1.33;;
7191;SDS011;3637;51.494;11.958;2023-03-14T14:36:42;2.57;;;0.93;;
7191;SDS011;3637;51.494;11.958;2023-03-14T14:39:49;1.23;;;1.13;;
7191;SDS011;3637;51.494;11.958;2023-03-14T14:42:53;1.10;;;1.00;;
7191;SDS011;3637;51.494;11.958;2023-03-14T14:45:58;1.27;;;1.17;;
7191;SDS011;3637;51.494;11.958;2023-03-14T14:49:04;1.00;;;1.00;;
7191;SDS011;3637;51.494;11.958;2023-03-14T14:52:09;1.10;;;1.10;;
7191;SDS011;3637;51.494;11.958;2023-03-14T14:55:16;1.17;;;1.17;;
7191;SDS011;3637;51.494;11.958;2023-03-14T14:58:20;1.23;;;1.13;;
7191;SDS011;3637;51.494;11.958;2023-03-14T15:01:30;1.40;;;1.30;;
7191;SDS011;3637;51.494;11.958;2023-03-14T15:04:35;1.70;;;1.60;;
7191;SDS011;3637;51.494;11.958;2023-03-14T15:07:37;1.90;;;1.80;;
7191;SDS011;3637;51.494;11.958;2023-03-14T15:10:38;1.50;;;1.40;;
7191;SDS011;3637;51.494;11.958;2023-03-14T15:13:40;1.20;;;1.17;;
7191;SDS011;3637;51.494;11.958;2023-03-14T15:16:43;1.10;;;1.10;;
7191;SDS011;3637;51.494;11.958;2023-03-14T15:19:45;1.10;;;1.10;;
7191;SDS011;3637;51.494;11.958;2023-03-14T15:22:47;1.00;;;1.00;;
7191;SDS011;3637;51.494;11.958;2023-03-14T15:25:49;1.43;;;1.33;;
7191;SDS011;3637;51.494;11.958;2023-03-14T15:28:51;1.00;;;1.00;;
7191;SDS011;3637;51.494;11.958;2023-03-14T15:31:55;1.07;;;1.07;;
7191;SDS011;3637;51.494;11.958;2023-03-14T15:34:56;0.97;;;0.97;;
7191;SDS011;3637;51.494;11.958;2023-03-14T15:37:58;1.33;;;1.23;;
7191;SDS011;3637;51.494;11.958;2023-03-14T15:41:00;1.10;;;1.10;;
7191;SDS011;3637;51.494;11.958;2023-03-14T15:44:02;1.10;;;1.10;;
7191;SDS011;3637;51.494;11.958;2023-03-14T15:47:05;1.30;;;1.30;;
7191;SDS011;3637;51.494;11.958;2023-03-14T15:50:08;2.67;;;1.40;;
7191;SDS011;3637;51.494;11.958;2023-03-14T15:53:11;1.57;;;1.47;;
7191;SDS011;3637;51.494;11.958;2023-03-14T15:56:14;1.30;;;1.20;;
7191;SDS011;3637;51.494;11.958;2023-03-14T15:59:17;1.20;;;1.20;;
7191;SDS011;3637;51.494;11.958;2023-03-14T16:02:20;1.30;;;1.20;;
7191;SDS011;3637;51.494;11.958;2023-03-14T16:05:22;1.70;;;1.60;;
7191;SDS011;3637;51.494;11.958;2023-03-14T16:08:24;1.40;;;1.30;;
7191;SDS011;3637;51.494;11.958;2023-03-14T16:11:26;1.70;;;1.60;;
7191;SDS011;3637;51.494;11.958;2023-03-14T16:14:28;1.93;;;1.40;;
7191;SDS011;3637;51.494;11.958;2023-03-14T16:17:31;1.40;;;1.30;;
7191;SDS011;3637;51.494;11.958;2023-03-14T16:20:33;1.73;;;1.63;;
7191;SDS011;3637;51.494;11.958;2023-03-14T16:23:35;10.70;;;2.40;;
7191;SDS011;3637;51.494;11.958;2023-03-14T16:26:38;3.70;;;1.70;;
7191;SDS011;3637;51.494;11.958;2023-03-14T16:29:40;1.93;;;1.77;;
7191;SDS011;3637;51.494;11.958;2023-03-14T16:32:45;1.90;;;1.57;;
7191;SDS011;3637;51.494;11.958;2023-03-14T16:35:54;2.47;;;1.50;;
7191;SDS011;3637;51.494;11.958;2023-03-14T16:38:58;1.70;;;1.60;;
7191;SDS011;3637;51.494;11.958;2023-03-14T16:41:59;3.47;;;1.73;;
7191;SDS011;3637;51.494;11.958;2023-03-14T16:45:01;3.23;;;1.50;;
7191;SDS011;3637;51.494;11.958;2023-03-14T16:48:04;1.30;;;1.20;;
7191;SDS011;3637;51.494;11.958;2023-03-14T16:51:06;2.77;;;1.40;;
7191;SDS011;3637;51.494;11.958;2023-03-14T16:54:08;1.40;;;1.30;;
7191;SDS011;3637;51.494;11.958;2023-03-14T16:57:10;4.10;;;1.50;;
7191;SDS011;3637;51.494;11.958;2023-03-14T17:00:12;1.50;;;1.40;;
7191;SDS011;3637;51.494;11.958;2023-03-14T17:03:16;1.70;;;1.57;;
7191;SDS011;3637;51.494;11.958;2023-03-14T17:06:19;4.53;;;2.23;;
7191;SDS011;3637;51.494;11.958;2023-03-14T17:09:23;3.27;;;2.03;;
7191;SDS011;3637;51.494;11.958;2023-03-14T17:12:25;1.87;;;1.30;;
7191;SDS011;3637;51.494;11.958;2023-03-14T17:15:27;4.03;;;1.90;;
7191;SDS011;3637;51.494;11.958;2023-03-14T17:18:30;1.73;;;1.63;;
7191;SDS011;3637;51.494;11.958;2023-03-14T17:21:32;1.83;;;1.73;;
7191;SDS011;3637;51.494;11.958;2023-03-14T17:24:34;3.20;;;1.87;;
7191;SDS011;3637;51.494;11.958;2023-03-14T17:27:36;6.03;;;2.27;;
7191;SDS011;3637;51.494;11.958;2023-03-14T17:30:38;3.63;;;1.50;;
7191;SDS011;3637;51.494;11.958;2023-03-14T17:33:42;4.57;;;2.00;;
7191;SDS011;3637;51.494;11.958;2023-03-14T17:36:44;2.20;;;1.50;;
7191;SDS011;3637;51.494;11.958;2023-03-14T17:39:46;4.13;;;1.43;;
7191;SDS011;3637;51.494;11.958;2023-03-14T17:42:47;1.87;;;1.50;;
7191;SDS011;3637;51.494;11.958;2023-03-14T17:45:55;6.67;;;1.80;;
7191;SDS011;3637;51.494;11.958;2023-03-14T17:48:59;1.63;;;1.53;;
7191;SDS011;3637;51.494;11.958;2023-03-14T17:52:01;4.57;;;2.00;;
7191;SDS011;3637;51.494;11.958;2023-03-14T17:55:03;9.60;;;2.57;;
7191;SDS011;3637;51.494;11.958;2023-03-14T17:58:06;6.07;;;1.80;;
7191;SDS011;3637;51.494;11.958;2023-03-14T18:01:08;13.30;;;2.97;;
7191;SDS011;3637;51.494;11.958;2023-03-14T18:04:12;2.40;;;1.50;;
7191;SDS011;3637;51.494;11.958;2023-03-14T18:07:16;11.13;;;2.00;;
7191;SDS011;3637;51.494;11.958;2023-03-14T18:10:19;2.83;;;1.80;;
7191;SDS011;3637;51.494;11.958;2023-03-14T18:13:21;2.97;;;1.73;;
7191;SDS011;3637;51.494;11.958;2023-03-14T18:16:23;3.53;;;2.07;;
7191;SDS011;3637;51.494;11.958;2023-03-14T18:19:27;4.70;;;2.20;;
7191;SDS011;3637;51.494;11.958;2023-03-14T18:22:29;7.60;;;2.10;;
7191;SDS011;3637;51.494;11.958;2023-03-14T18:25:30;3.13;;;2.00;;
7191;SDS011;3637;51.494;11.958;2023-03-14T18:28:32;1.70;;;1.60;;
7191;SDS011;3637;51.494;11.958;2023-03-14T18:31:34;7.20;;;2.37;;
7191;SDS011;3637;51.494;11.958;2023-03-14T18:34:38;2.03;;;1.80;;
7191;SDS011;3637;51.494;11.958;2023-03-14T18:37:41;1.73;;;1.47;;
7191;SDS011;3637;51.494;11.958;2023-03-14T18:40:43;4.67;;;1.83;;
7191;SDS011;3637;51.494;11.958;2023-03-14T18:43:47;5.90;;;1.83;;
7191;SDS011;3637;51.494;11.958;2023-03-14T18:46:51;4.03;;;1.67;;